createdAt,value
2022-12-13T00:01:24.302Z,100.00
2022-12-13T00:03:53.833Z,100.00
2022-12-13T00:06:23.215Z,100.00
2022-12-13T00:08:51.144Z,100.00
2022-12-13T00:11:19.923Z,100.00
2022-12-13T00:13:48.187Z,100.00
2022-12-13T00:16:18.408Z,100.00
2022-12-13T00:18:49.165Z,100.00
2022-12-13T00:21:19.501Z,100.00
2022-12-13T00:23:48.840Z,100.00
2022-12-13T00:26:18.626Z,100.00
2022-12-13T00:28:49.340Z,100.00
2022-12-13T00:34:06.170Z,100.00
2022-12-13T00:36:34.208Z,100.00
2022-12-13T00:39:03.514Z,100.00
2022-12-13T00:41:33.975Z,100.00
2022-12-13T00:44:03.194Z,100.00
2022-12-13T00:46:32.078Z,100.00
2022-12-13T00:49:01.931Z,100.00
2022-12-13T00:51:31.573Z,100.00
2022-12-13T00:54:00.887Z,100.00
2022-12-13T00:56:32.996Z,100.00
2022-12-13T00:59:01.239Z,100.00
2022-12-13T01:01:31.155Z,100.00
2022-12-13T01:04:01.533Z,100.00
2022-12-13T01:06:34.179Z,100.00
2022-12-13T01:09:03.016Z,100.00
2022-12-13T01:11:32.344Z,100.00
2022-12-13T01:14:00.264Z,100.00
2022-12-13T01:16:28.262Z,100.00
2022-12-13T01:18:58.218Z,100.00
2022-12-13T01:21:26.184Z,100.00
2022-12-13T01:23:54.204Z,100.00
2022-12-13T01:26:23.960Z,100.00
2022-12-13T01:28:53.240Z,100.00
2022-12-13T01:31:21.841Z,100.00
2022-12-13T01:33:50.312Z,100.00
2022-12-13T01:36:27.546Z,100.00
2022-12-13T01:38:58.464Z,100.00
2022-12-13T01:41:28.302Z,100.00
2022-12-13T01:44:03.618Z,100.00
2022-12-13T01:46:33.403Z,100.00
2022-12-13T01:49:19.829Z,100.00
2022-12-13T01:51:52.115Z,100.00
2022-12-13T01:54:24.170Z,100.00
2022-12-13T01:57:02.676Z,100.00
2022-12-13T01:59:32.075Z,100.00
2022-12-13T02:02:01.031Z,100.00
2022-12-13T02:04:33.581Z,100.00
2022-12-13T02:07:02.077Z,100.00
2022-12-13T02:09:30.063Z,100.00
2022-12-13T02:11:57.997Z,100.00
2022-12-13T02:14:27.019Z,100.00
2022-12-13T02:17:04.474Z,100.00
2022-12-13T02:20:06.924Z,100.00
2022-12-13T02:22:50.221Z,100.00
2022-12-13T02:25:42.010Z,100.00
2022-12-13T02:28:32.489Z,100.00
2022-12-13T02:31:08.666Z,100.00
2022-12-13T02:33:46.590Z,100.00
2022-12-13T02:36:22.197Z,100.00
2022-12-13T02:38:57.652Z,100.00
2022-12-13T02:41:34.796Z,100.00
2022-12-13T02:44:22.011Z,100.00
2022-12-13T02:46:56.112Z,100.00
2022-12-13T02:49:27.504Z,100.00
2022-12-13T02:51:57.919Z,100.00
2022-12-13T02:54:26.101Z,100.00
2022-12-13T02:56:55.885Z,100.00
2022-12-13T02:59:28.509Z,100.00
2022-12-13T03:02:10.233Z,100.00
2022-12-13T03:05:05.303Z,100.00
2022-12-13T03:07:40.941Z,100.00
2022-12-13T03:10:17.917Z,100.00
2022-12-13T03:13:12.991Z,100.00
2022-12-13T03:15:42.419Z,100.00
2022-12-13T03:18:17.761Z,100.00
2022-12-13T03:20:49.884Z,100.00
2022-12-13T03:23:19.508Z,100.00
2022-12-13T03:25:48.625Z,100.00
2022-12-13T03:28:16.573Z,100.00
2022-12-13T03:30:44.510Z,100.00
2022-12-13T03:33:14.016Z,100.00
2022-12-13T03:35:44.775Z,100.00
2022-12-13T03:38:22.481Z,100.00
2022-12-13T03:40:53.624Z,100.00
2022-12-13T03:43:22.764Z,100.00
2022-12-13T03:45:51.718Z,100.00
2022-12-13T03:48:23.235Z,100.00
2022-12-13T03:50:52.696Z,100.00
2022-12-13T03:53:23.062Z,100.00
2022-12-13T03:56:01.735Z,100.00
2022-12-13T03:58:36.353Z,100.00
2022-12-13T04:01:07.052Z,100.00
2022-12-13T04:03:37.523Z,100.00
2022-12-13T04:06:06.546Z,100.00
2022-12-13T04:08:35.063Z,100.00
2022-12-13T04:11:24.814Z,100.00
2022-12-13T04:13:52.352Z,100.00
2022-12-13T04:16:20.812Z,100.00
2022-12-13T04:18:50.805Z,100.00
2022-12-13T04:21:18.827Z,100.00
2022-12-13T04:23:46.824Z,100.00
2022-12-13T04:26:14.761Z,100.00
2022-12-13T04:28:42.811Z,100.00
2022-12-13T04:31:10.807Z,100.00
2022-12-13T04:33:38.788Z,100.00
2022-12-13T04:36:09.994Z,100.00
2022-12-13T04:38:37.902Z,100.00
2022-12-13T04:41:08.180Z,100.00
2022-12-13T04:43:36.137Z,100.00
2022-12-13T04:46:04.159Z,100.00
2022-12-13T04:48:32.577Z,100.00
2022-12-13T04:51:01.124Z,100.00
2022-12-13T04:53:31.007Z,100.00
2022-12-13T04:55:59.150Z,100.00
2022-12-13T04:58:27.071Z,100.00
2022-12-13T05:00:55.047Z,100.00
2022-12-13T05:03:23.406Z,100.00
2022-12-13T05:05:51.397Z,100.00
2022-12-13T05:08:19.385Z,100.00
2022-12-13T05:10:48.826Z,100.00
2022-12-13T05:13:16.764Z,100.00
2022-12-13T05:15:44.709Z,100.00
2022-12-13T05:18:12.637Z,100.00
2022-12-13T05:20:40.946Z,100.00
2022-12-13T05:23:08.938Z,100.00
2022-12-13T05:25:37.488Z,100.00
2022-12-13T05:28:08.718Z,100.00
2022-12-13T05:30:55.989Z,100.00
2022-12-13T05:33:24.857Z,100.00
2022-12-13T05:35:57.652Z,100.00
2022-12-13T05:38:27.265Z,100.00
2022-12-13T05:40:55.242Z,100.00
2022-12-13T05:43:42.839Z,100.00
2022-12-13T05:46:12.222Z,100.00
2022-12-13T05:48:40.239Z,100.00
2022-12-13T05:51:10.815Z,100.00
2022-12-13T05:53:40.080Z,100.00
2022-12-13T05:56:08.946Z,100.00
2022-12-13T05:58:41.649Z,100.00
2022-12-13T06:01:11.878Z,100.00
2022-12-13T06:03:40.251Z,100.00
2022-12-13T06:06:09.864Z,100.00
2022-12-13T06:08:38.294Z,100.00
2022-12-13T06:11:10.293Z,100.00
2022-12-13T06:13:43.728Z,100.00
2022-12-13T06:16:22.725Z,100.00
2022-12-13T06:18:59.475Z,100.00
2022-12-13T06:21:41.582Z,100.00
2022-12-13T06:24:14.520Z,100.00
2022-12-13T06:26:42.514Z,100.00
2022-12-13T06:29:23.234Z,100.00
2022-12-13T06:32:01.780Z,100.00
2022-12-13T06:34:31.305Z,100.00
2022-12-13T06:36:59.227Z,100.00
2022-12-13T06:39:32.808Z,100.00
2022-12-13T06:42:01.950Z,100.00
2022-12-13T06:44:31.396Z,100.00
2022-12-13T06:47:10.445Z,100.00
2022-12-13T06:49:41.087Z,100.00
2022-12-13T06:52:09.978Z,100.00
2022-12-13T06:54:37.896Z,100.00
2022-12-13T06:57:05.855Z,100.00
2022-12-13T06:59:35.134Z,100.00
2022-12-13T07:02:03.983Z,100.00
2022-12-13T07:04:32.219Z,100.00
2022-12-13T07:07:01.614Z,100.00
2022-12-13T07:09:30.931Z,100.00
2022-12-13T07:11:58.991Z,100.00
2022-12-13T07:14:26.978Z,100.00
2022-12-13T07:17:03.201Z,100.00
2022-12-13T07:19:35.445Z,100.00
2022-12-13T07:22:05.831Z,99.99
2022-12-13T07:24:35.236Z,99.58
2022-12-13T07:27:03.399Z,100.00
2022-12-13T07:29:31.338Z,100.00
2022-12-13T07:32:01.094Z,99.53
2022-12-13T07:34:30.301Z,98.15
2022-12-13T07:36:59.406Z,98.17
2022-12-13T07:39:27.678Z,97.12
2022-12-13T07:41:59.021Z,97.66
2022-12-13T07:44:27.244Z,96.00
2022-12-13T07:46:55.326Z,96.52
2022-12-13T07:49:25.189Z,96.13
2022-12-13T07:51:53.241Z,96.33
2022-12-13T07:54:21.306Z,95.69
2022-12-13T07:56:49.218Z,94.77
2022-12-13T07:59:17.135Z,95.36
2022-12-13T08:01:56.864Z,95.35
2022-12-13T08:04:26.348Z,94.55
2022-12-13T08:06:54.360Z,93.55
2022-12-13T08:09:22.283Z,94.05
2022-12-13T08:11:50.321Z,93.50
2022-12-13T08:14:18.219Z,93.12
2022-12-13T08:16:46.192Z,93.55
2022-12-13T08:19:14.340Z,93.19
2022-12-13T08:22:01.978Z,94.46
2022-12-13T08:24:31.478Z,96.10
2022-12-13T08:27:01.977Z,94.86
2022-12-13T08:29:34.477Z,95.75
2022-12-13T08:32:04.123Z,94.87
2022-12-13T08:34:32.767Z,93.83
2022-12-13T08:37:03.881Z,95.24
2022-12-13T08:39:34.600Z,95.13
2022-12-13T08:42:16.857Z,93.95
2022-12-13T08:44:47.549Z,93.55
2022-12-13T08:47:23.082Z,93.76
2022-12-13T08:49:53.607Z,92.78
2022-12-13T08:52:23.976Z,91.29
2022-12-13T08:54:52.312Z,92.12
2022-12-13T08:57:22.490Z,92.10
2022-12-13T08:59:50.446Z,92.46
2022-12-13T09:02:18.552Z,92.93
2022-12-13T09:04:46.567Z,93.63
2022-12-13T09:07:14.853Z,93.11
2022-12-13T09:09:44.158Z,96.20
2022-12-13T09:12:29.887Z,93.61
2022-12-13T09:15:01.275Z,93.57
2022-12-13T09:17:36.315Z,95.67
2022-12-13T09:20:10.170Z,94.10
2022-12-13T09:23:02.281Z,93.70
2022-12-13T09:25:36.962Z,97.01
2022-12-13T09:28:07.382Z,95.92
2022-12-13T09:30:35.636Z,94.50
2022-12-13T09:33:27.957Z,94.99
2022-12-13T09:35:52.254Z,95.21
2022-12-13T09:38:20.534Z,94.03
2022-12-13T09:40:58.343Z,93.66
2022-12-13T09:43:32.706Z,90.33
2022-12-13T09:46:13.364Z,90.56
2022-12-13T09:49:01.132Z,88.92
2022-12-13T09:51:44.755Z,89.09
2022-12-13T09:54:20.331Z,90.15
2022-12-13T09:56:51.235Z,89.03
2022-12-13T09:59:22.579Z,88.47
2022-12-13T10:01:50.588Z,88.20
2022-12-13T10:04:19.443Z,89.81
2022-12-13T10:06:47.420Z,90.68
2022-12-13T10:09:15.707Z,91.51
2022-12-13T10:11:53.679Z,90.13
2022-12-13T10:14:27.821Z,90.55
2022-12-13T10:16:59.107Z,89.84
2022-12-13T10:19:36.111Z,89.82
2022-12-13T10:22:06.761Z,90.86
2022-12-13T10:24:52.137Z,91.54
2022-12-13T10:27:26.853Z,91.04
2022-12-13T10:30:02.782Z,90.44
2022-12-13T10:32:37.915Z,89.02
2022-12-13T10:35:21.889Z,87.00
2022-12-13T10:37:50.085Z,90.00
2022-12-13T10:40:31.884Z,87.85
2022-12-13T10:43:14.391Z,88.96
2022-12-13T10:45:43.193Z,89.36
2022-12-13T10:48:21.342Z,90.25
2022-12-13T10:51:00.132Z,89.93
2022-12-13T10:53:32.493Z,91.00
2022-12-13T10:56:02.467Z,90.78
2022-12-13T10:58:41.820Z,91.05
2022-12-13T11:01:12.754Z,92.22
2022-12-13T11:03:40.790Z,91.93
2022-12-13T11:06:14.516Z,91.86
2022-12-13T11:08:42.854Z,92.90
2022-12-13T11:11:13.098Z,93.44
2022-12-13T11:13:46.552Z,91.99
2022-12-13T11:16:25.163Z,95.08
2022-12-13T11:18:56.521Z,95.29
2022-12-13T11:21:27.580Z,93.51
2022-12-13T11:24:01.870Z,96.25
2022-12-13T11:26:32.130Z,96.02
2022-12-13T11:29:23.145Z,95.96
2022-12-13T11:32:00.837Z,94.42
2022-12-13T11:34:42.649Z,95.63
2022-12-13T11:37:22.424Z,96.00
2022-12-13T11:40:01.848Z,96.77
2022-12-13T11:42:35.174Z,94.68
2022-12-13T11:45:22.595Z,94.66
2022-12-13T11:48:00.937Z,95.91
2022-12-13T11:50:35.547Z,94.88
2022-12-13T11:53:21.549Z,95.98
2022-12-13T11:55:56.428Z,95.63
2022-12-13T11:59:02.342Z,95.39
2022-12-13T12:01:23.565Z,96.35
2022-12-13T12:03:56.473Z,95.90
2022-12-13T12:06:28.333Z,94.49
2022-12-13T12:09:00.297Z,94.77
2022-12-13T12:11:34.160Z,93.67
2022-12-13T12:14:07.232Z,92.62
2022-12-13T12:16:41.208Z,91.44
2022-12-13T12:19:15.757Z,91.62
2022-12-13T12:22:13.610Z,92.23
2022-12-13T12:24:58.511Z,91.36
2022-12-13T12:27:38.496Z,91.19
2022-12-13T12:30:22.615Z,93.60
2022-12-13T12:33:07.461Z,94.51
2022-12-13T12:36:17.401Z,95.10
2022-12-13T12:39:26.505Z,95.43
2022-12-13T12:42:10.881Z,94.67
2022-12-13T12:44:46.588Z,94.88
2022-12-13T12:47:57.868Z,96.04
2022-12-13T12:50:35.510Z,94.28
2022-12-13T12:53:22.497Z,96.67
2022-12-13T12:55:57.807Z,98.91
2022-12-13T12:58:31.513Z,98.20
2022-12-13T13:01:14.469Z,98.68
2022-12-13T13:03:44.111Z,97.45
2022-12-13T13:06:17.388Z,96.62
2022-12-13T13:08:55.286Z,96.57
2022-12-13T13:11:25.937Z,95.60
2022-12-13T13:14:06.706Z,96.79
2022-12-13T13:16:37.836Z,96.59
2022-12-13T13:19:07.083Z,95.98
2022-12-13T13:21:49.774Z,97.51
2022-12-13T13:24:26.234Z,95.74
2022-12-13T13:26:56.942Z,96.53
2022-12-13T13:29:43.270Z,96.79
2022-12-13T13:32:32.347Z,96.97
2022-12-13T13:35:50.326Z,97.38
2022-12-13T13:38:50.911Z,98.04
2022-12-13T13:41:56.138Z,97.63
2022-12-13T13:44:55.393Z,98.99
2022-12-13T13:47:43.073Z,98.56
2022-12-13T13:50:47.209Z,99.76
2022-12-13T13:53:46.368Z,97.76
2022-12-13T13:56:50.151Z,97.49
2022-12-13T13:59:52.806Z,98.42
2022-12-13T14:02:51.871Z,98.70
2022-12-13T14:06:11.568Z,98.56
2022-12-13T14:08:50.191Z,97.72
2022-12-13T14:11:42.591Z,99.68
2022-12-13T14:14:50.018Z,100.00
2022-12-13T14:17:50.599Z,100.00
2022-12-13T14:20:54.128Z,100.00
2022-12-13T14:23:39.641Z,100.00
2022-12-13T14:26:35.308Z,100.00
2022-12-13T14:29:05.836Z,100.00
2022-12-13T14:31:38.244Z,100.00
2022-12-13T14:34:08.251Z,100.00
2022-12-13T14:36:39.216Z,99.92
2022-12-13T14:39:24.492Z,100.00
2022-12-13T14:41:57.539Z,99.98
2022-12-13T14:44:27.597Z,100.00
2022-12-13T14:46:57.420Z,99.75
2022-12-13T14:49:27.717Z,100.00
2022-12-13T14:52:03.029Z,99.13
2022-12-13T14:54:39.039Z,100.00
2022-12-13T14:57:18.301Z,100.00
2022-12-13T14:59:50.606Z,100.00
2022-12-13T15:02:31.114Z,100.00
2022-12-13T15:05:02.017Z,100.00
2022-12-13T15:07:34.409Z,100.00
2022-12-13T15:10:06.344Z,100.00
2022-12-13T15:12:35.724Z,100.00
2022-12-13T15:15:06.531Z,100.00
2022-12-13T15:17:36.296Z,100.00
2022-12-13T15:20:23.496Z,100.00
2022-12-13T15:22:58.688Z,100.00
2022-12-13T15:25:27.068Z,100.00
2022-12-13T15:27:57.125Z,100.00
2022-12-13T15:30:30.451Z,100.00
2022-12-13T15:33:09.601Z,100.00
2022-12-13T15:35:38.580Z,100.00
2022-12-13T15:38:06.571Z,100.00
2022-12-13T15:40:35.087Z,100.00
2022-12-13T15:43:04.552Z,100.00
2022-12-13T15:45:36.918Z,100.00
2022-12-13T15:48:06.076Z,100.00
2022-12-13T15:50:36.209Z,100.00
2022-12-13T15:53:06.772Z,100.00
2022-12-13T15:55:36.064Z,100.00
2022-12-13T15:58:23.825Z,100.00
2022-12-13T16:00:51.807Z,100.00
2022-12-13T16:03:22.936Z,100.00
2022-12-13T16:05:52.609Z,100.00
2022-12-13T16:08:29.441Z,98.76
2022-12-13T16:10:58.511Z,98.57
2022-12-13T16:13:30.032Z,100.00
2022-12-13T16:16:09.156Z,99.64
2022-12-13T16:18:47.261Z,97.43
2022-12-13T16:21:15.626Z,98.83
2022-12-13T16:23:48.957Z,98.38
2022-12-13T16:26:23.062Z,97.95
2022-12-13T16:28:52.558Z,99.19
2022-12-13T16:31:22.970Z,98.90
2022-12-13T16:33:51.011Z,99.82
2022-12-13T16:36:19.009Z,97.28
2022-12-13T16:38:46.960Z,97.21
2022-12-13T16:41:16.423Z,96.82
2022-12-13T16:43:54.028Z,96.11
2022-12-13T16:47:14.155Z,96.23
2022-12-13T16:49:19.785Z,96.94
2022-12-13T16:51:48.803Z,98.43
2022-12-13T16:54:17.542Z,98.02
2022-12-13T16:56:45.492Z,97.77
2022-12-13T16:59:16.866Z,98.09
2022-12-13T17:01:46.103Z,99.47
2022-12-13T17:04:20.465Z,96.67
2022-12-13T17:06:50.201Z,96.84
2022-12-13T17:09:18.200Z,98.49
2022-12-13T17:11:46.150Z,99.47
2022-12-13T17:14:15.568Z,96.77
2022-12-13T17:16:43.598Z,98.08
2022-12-13T17:19:12.074Z,100.00
2022-12-13T17:21:39.983Z,100.00
2022-12-13T17:24:08.653Z,99.58
2022-12-13T17:26:36.822Z,97.05
2022-12-13T17:29:05.155Z,94.81
2022-12-13T17:31:36.041Z,96.12
2022-12-13T17:34:04.654Z,95.48
2022-12-13T17:36:32.721Z,95.05
2022-12-13T17:39:00.809Z,96.36
2022-12-13T17:41:28.723Z,96.08
2022-12-13T17:43:59.752Z,94.00
2022-12-13T17:46:27.787Z,94.17
2022-12-13T17:48:57.380Z,95.03
2022-12-13T17:51:25.287Z,95.24
2022-12-13T17:53:53.181Z,96.12
2022-12-13T17:56:21.244Z,95.57
2022-12-13T17:58:49.320Z,97.26
2022-12-13T18:01:19.149Z,99.11
2022-12-13T18:03:47.952Z,99.38
2022-12-13T18:06:17.392Z,97.22
2022-12-13T18:08:46.868Z,95.96
2022-12-13T18:11:33.833Z,96.31
2022-12-13T18:14:03.192Z,100.00
2022-12-13T18:16:36.959Z,100.00
2022-12-13T18:19:07.410Z,100.00
2022-12-13T18:21:37.492Z,100.00
2022-12-13T18:24:06.595Z,99.52
2022-12-13T18:26:35.376Z,100.00
2022-12-13T18:29:04.273Z,100.00
2022-12-13T18:31:32.356Z,100.00
2022-12-13T18:34:00.842Z,100.00
2022-12-13T18:36:28.798Z,100.00
2022-12-13T18:38:58.150Z,100.00
2022-12-13T18:41:29.117Z,100.00
2022-12-13T18:43:59.575Z,100.00
2022-12-13T18:46:28.432Z,98.31
2022-12-13T18:48:56.814Z,98.00
2022-12-13T18:51:25.390Z,98.00
2022-12-13T18:53:54.053Z,98.18
2022-12-13T18:56:23.701Z,100.00
2022-12-13T18:58:52.476Z,100.00
2022-12-13T19:01:22.840Z,100.00
2022-12-13T19:03:52.349Z,98.37
2022-12-13T19:06:22.135Z,98.40
2022-12-13T19:08:50.914Z,97.69
2022-12-13T19:11:19.736Z,96.97
2022-12-13T19:13:49.789Z,99.00
2022-12-13T19:16:20.419Z,100.00
2022-12-13T19:18:49.582Z,100.00
2022-12-13T19:21:19.713Z,100.00
2022-12-13T19:23:54.950Z,100.00
2022-12-13T19:26:25.435Z,99.52
2022-12-13T19:28:56.227Z,98.50
2022-12-13T19:31:28.687Z,98.92
2022-12-13T19:34:00.358Z,100.00
2022-12-13T19:36:28.292Z,100.00
2022-12-13T19:38:56.935Z,100.00
2022-12-13T19:41:24.952Z,100.00
2022-12-13T19:43:54.499Z,99.64
2022-12-13T19:46:22.884Z,98.34
2022-12-13T19:48:51.356Z,100.00
2022-12-13T19:51:19.293Z,100.00
2022-12-13T19:53:47.313Z,99.68
2022-12-13T19:56:17.860Z,100.00
2022-12-13T19:58:46.966Z,99.19
2022-12-13T20:01:17.363Z,99.45
2022-12-13T20:03:47.000Z,99.01
2022-12-13T20:06:17.460Z,99.15
2022-12-13T20:08:45.500Z,100.00
2022-12-13T20:11:17.112Z,100.00
2022-12-13T20:13:45.065Z,100.00
2022-12-13T20:16:18.192Z,100.00
2022-12-13T20:18:46.554Z,100.00
2022-12-13T20:21:16.014Z,100.00
2022-12-13T20:23:49.337Z,100.00
2022-12-13T20:26:19.971Z,100.00
2022-12-13T20:28:49.017Z,100.00
2022-12-13T20:31:20.206Z,100.00
2022-12-13T20:33:48.967Z,100.00
2022-12-13T20:36:26.701Z,100.00
2022-12-13T20:38:56.507Z,100.00
2022-12-13T20:41:25.795Z,100.00
2022-12-13T20:43:54.459Z,100.00
2022-12-13T20:46:24.821Z,100.00
2022-12-13T20:48:53.594Z,100.00
2022-12-13T20:51:23.285Z,100.00
2022-12-13T20:53:52.784Z,100.00
2022-12-13T20:56:22.340Z,100.00
2022-12-13T20:58:52.124Z,100.00
2022-12-13T21:01:22.079Z,100.00
2022-12-13T21:03:54.842Z,100.00
2022-12-13T21:06:23.071Z,100.00
2022-12-13T21:08:54.727Z,100.00
2022-12-13T21:11:27.086Z,100.00
2022-12-13T21:14:00.986Z,100.00
2022-12-13T21:16:34.655Z,100.00
2022-12-13T21:19:04.041Z,100.00
2022-12-13T21:21:31.954Z,100.00
2022-12-13T21:24:00.678Z,100.00
2022-12-13T21:26:34.623Z,100.00
2022-12-13T21:29:06.442Z,100.00
2022-12-13T21:31:35.712Z,100.00
2022-12-13T21:34:06.797Z,100.00
2022-12-13T21:36:36.893Z,100.00
2022-12-13T21:39:06.929Z,100.00
2022-12-13T21:41:35.148Z,100.00
2022-12-13T21:44:03.124Z,100.00
2022-12-13T21:47:02.845Z,100.00
2022-12-13T21:49:20.732Z,100.00
2022-12-13T21:51:48.792Z,100.00
2022-12-13T21:54:18.053Z,100.00
2022-12-13T21:57:03.472Z,100.00
2022-12-13T21:59:31.928Z,100.00
2022-12-13T22:02:14.825Z,100.00
2022-12-13T22:04:46.170Z,100.00
2022-12-13T22:07:16.336Z,100.00
2022-12-13T22:09:44.697Z,100.00
2022-12-13T22:12:20.466Z,100.00
2022-12-13T22:14:48.699Z,99.90
2022-12-13T22:17:17.047Z,99.27
2022-12-13T22:19:48.483Z,98.34
2022-12-13T22:22:17.981Z,99.46
2022-12-13T22:24:52.715Z,99.60
2022-12-13T22:27:24.189Z,98.80
2022-12-13T22:29:52.804Z,99.29
2022-12-13T22:32:21.012Z,98.79
2022-12-13T22:34:50.390Z,98.67
2022-12-13T22:37:18.538Z,98.09
2022-12-13T22:39:46.571Z,98.98
2022-12-13T22:42:14.586Z,98.91
2022-12-13T22:44:42.530Z,98.26
2022-12-13T22:47:10.473Z,99.21
2022-12-13T22:49:38.432Z,98.07
2022-12-13T22:52:07.898Z,97.65
2022-12-13T22:54:35.941Z,98.29
2022-12-13T22:57:03.958Z,98.61
2022-12-13T22:59:33.025Z,98.76
2022-12-13T23:02:02.904Z,98.57
2022-12-13T23:04:31.871Z,97.49
2022-12-13T23:06:59.975Z,96.64
2022-12-13T23:09:29.279Z,96.68
2022-12-13T23:12:14.768Z,95.34
2022-12-13T23:14:42.809Z,95.55
2022-12-13T23:17:10.741Z,96.65
2022-12-13T23:19:48.800Z,95.64
2022-12-13T23:22:19.100Z,95.90
2022-12-13T23:24:48.472Z,96.45
2022-12-13T23:27:16.436Z,95.91
2022-12-13T23:29:44.364Z,95.52
2022-12-13T23:32:12.756Z,94.67
2022-12-13T23:34:40.688Z,92.46
2022-12-13T23:37:08.601Z,91.99
2022-12-13T23:39:36.505Z,92.08
2022-12-13T23:42:06.039Z,93.47
2022-12-13T23:44:34.245Z,93.75
2022-12-13T23:47:02.196Z,93.42
2022-12-13T23:49:30.126Z,94.00
2022-12-13T23:51:58.060Z,93.62
2022-12-13T23:54:25.984Z,94.49
2022-12-13T23:56:53.997Z,94.69
2022-12-13T23:59:25.960Z,95.93
